createdAt,value
2019-02-21T00:05:05.682Z,65.40
2019-02-21T00:11:11.433Z,65.67
2019-02-21T00:17:17.187Z,65.65
2019-02-21T00:23:22.986Z,65.98
2019-02-21T00:29:29.008Z,65.63
2019-02-21T00:35:35.214Z,65.86
2019-02-21T00:41:41.336Z,65.98
2019-02-21T00:47:47.391Z,66.42
2019-02-21T00:53:53.510Z,66.76
2019-02-21T00:59:59.458Z,66.78
2019-02-21T01:06:05.599Z,66.78
2019-02-21T01:12:11.418Z,67.15
2019-02-21T01:18:17.178Z,67.53
2019-02-21T01:24:22.935Z,67.53
2019-02-21T01:30:28.918Z,67.42
2019-02-21T01:36:34.666Z,67.42
2019-02-21T01:42:40.961Z,67.36
2019-02-21T01:48:46.866Z,67.52
2019-02-21T01:54:52.617Z,67.41
2019-02-21T02:01:07.950Z,67.31
2019-02-21T02:07:06.040Z,67.43
2019-02-21T02:13:23.740Z,67.42
2019-02-21T02:19:19.380Z,67.52
2019-02-21T02:25:25.385Z,67.60
2019-02-21T02:31:31.124Z,67.47
2019-02-21T02:37:36.918Z,67.58
2019-02-21T02:43:42.802Z,67.23
2019-02-21T02:49:49.007Z,67.42
2019-02-21T02:55:54.815Z,67.78
2019-02-21T03:02:00.675Z,68.29
2019-02-21T03:08:06.624Z,68.24
2019-02-21T03:14:12.356Z,68.12
2019-02-21T03:20:18.130Z,68.02
2019-02-21T03:26:23.864Z,67.90
2019-02-21T03:32:29.668Z,67.71
2019-02-21T03:38:35.891Z,67.62
2019-02-21T03:44:41.768Z,67.29
2019-02-21T03:50:47.847Z,67.12
2019-02-21T03:56:53.761Z,67.08
2019-02-21T04:02:59.599Z,66.93
2019-02-21T04:09:08.982Z,66.89
2019-02-21T04:15:14.895Z,66.70
2019-02-21T04:21:21.128Z,66.74
2019-02-21T04:27:27.084Z,66.84
2019-02-21T04:33:34.448Z,67.16
2019-02-21T04:39:40.548Z,67.27
2019-02-21T04:45:46.597Z,67.31
2019-02-21T04:51:52.727Z,67.56
2019-02-21T04:57:58.626Z,67.63
2019-02-21T05:04:05.050Z,67.92
2019-02-21T05:10:10.947Z,68.13
2019-02-21T05:16:17.019Z,68.14
2019-02-21T05:22:22.878Z,68.12
2019-02-21T05:28:30.976Z,68.10
2019-02-21T05:34:58.978Z,68.11
2019-02-21T05:41:32.818Z,68.24
2019-02-21T05:47:55.014Z,68.30
2019-02-21T05:54:19.761Z,68.22
2019-02-21T06:00:37.429Z,68.51
2019-02-21T06:06:58.556Z,68.66
2019-02-21T06:13:27.004Z,68.66
2019-02-21T06:19:55.747Z,68.63
2019-02-21T06:26:18.019Z,68.85
2019-02-21T06:32:24.006Z,69.09
2019-02-21T06:38:29.831Z,69.02
2019-02-21T06:44:37.934Z,69.19
2019-02-21T06:50:44.126Z,69.27
2019-02-21T06:56:50.014Z,69.33
2019-02-21T07:02:56.014Z,69.46
2019-02-21T07:09:02.204Z,69.49
2019-02-21T07:15:09.980Z,69.41
2019-02-21T07:21:15.939Z,69.37
2019-02-21T07:27:21.782Z,69.36
2019-02-21T07:33:31.063Z,69.18
2019-02-21T07:39:43.919Z,69.03
2019-02-21T07:45:50.290Z,68.73
2019-02-21T07:51:56.019Z,68.50
2019-02-21T07:58:04.003Z,68.10
2019-02-21T08:04:09.461Z,67.77
2019-02-21T08:10:15.479Z,67.57
2019-02-21T08:16:21.399Z,67.28
2019-02-21T08:22:27.167Z,66.71
2019-02-21T08:28:33.040Z,65.88
2019-02-21T08:34:48.030Z,65.12
2019-02-21T08:40:53.405Z,64.68
2019-02-21T08:46:59.502Z,64.41
2019-02-21T08:53:05.271Z,64.03
2019-02-21T08:59:11.030Z,63.59
2019-02-21T09:05:17.139Z,63.25
2019-02-21T09:11:22.984Z,63.37
2019-02-21T09:17:29.011Z,63.32
2019-02-21T09:23:34.785Z,62.94
2019-02-21T09:29:40.510Z,62.56
2019-02-21T09:35:46.442Z,61.90
2019-02-21T09:41:52.636Z,60.88
2019-02-21T09:47:58.835Z,60.15
2019-02-21T09:54:04.747Z,59.79
2019-02-21T10:00:15.261Z,59.55
2019-02-21T10:06:21.169Z,59.61
2019-02-21T10:12:26.897Z,60.07
2019-02-21T10:18:32.694Z,60.14
2019-02-21T10:24:38.658Z,60.25
2019-02-21T10:30:44.727Z,60.56
2019-02-21T10:36:50.746Z,60.96
2019-02-21T10:42:56.571Z,61.23
2019-02-21T10:49:02.351Z,61.32
2019-02-21T10:55:08.673Z,61.07
2019-02-21T11:01:14.439Z,60.65
2019-02-21T11:07:20.187Z,59.79
2019-02-21T11:13:25.970Z,59.25
2019-02-21T11:19:32.292Z,59.10
2019-02-21T11:25:38.530Z,59.11
2019-02-21T11:31:44.448Z,59.19
2019-02-21T11:37:50.394Z,58.94
2019-02-21T11:43:56.787Z,58.44
2019-02-21T11:50:02.872Z,57.80
2019-02-21T11:56:09.828Z,56.54
2019-02-21T12:02:15.703Z,55.62
2019-02-21T12:08:23.369Z,54.04
2019-02-21T12:14:29.665Z,52.29
2019-02-21T12:20:35.652Z,52.25
2019-02-21T12:26:41.708Z,50.35
2019-02-21T12:32:48.130Z,50.18
2019-02-21T12:38:53.901Z,49.65
2019-02-21T12:44:59.732Z,49.53
2019-02-21T12:51:05.806Z,49.47
2019-02-21T12:57:12.201Z,49.32
2019-02-21T13:03:17.984Z,48.47
2019-02-21T13:09:24.358Z,48.92
2019-02-21T13:15:30.435Z,49.94
2019-02-21T13:21:36.230Z,50.24
2019-02-21T13:27:42.226Z,50.50
2019-02-21T13:33:48.160Z,51.28
2019-02-21T13:39:54.088Z,52.07
2019-02-21T13:46:00.139Z,52.35
2019-02-21T13:52:05.926Z,52.22
2019-02-21T13:58:11.709Z,52.45
2019-02-21T14:04:17.708Z,52.52
2019-02-21T14:10:23.561Z,52.56
2019-02-21T14:16:29.831Z,52.19
2019-02-21T14:22:35.743Z,51.73
2019-02-21T14:28:41.509Z,51.83
2019-02-21T14:34:47.375Z,51.45
2019-02-21T14:40:53.297Z,51.21
2019-02-21T14:46:59.966Z,51.28
2019-02-21T14:53:06.734Z,51.27
2019-02-21T14:59:12.982Z,51.71
2019-02-21T15:05:19.108Z,52.21
2019-02-21T15:11:25.476Z,52.30
2019-02-21T15:17:32.082Z,52.63
2019-02-21T15:23:38.174Z,52.86
2019-02-21T15:29:43.980Z,53.10
2019-02-21T15:35:50.058Z,53.23
2019-02-21T15:41:56.013Z,53.50
2019-02-21T15:48:02.405Z,53.50
2019-02-21T15:54:08.467Z,53.55
2019-02-21T16:00:17.312Z,53.52
2019-02-21T16:06:23.462Z,53.67
2019-02-21T16:12:29.415Z,53.91
2019-02-21T16:18:35.615Z,54.08
2019-02-21T16:24:43.710Z,54.16
2019-02-21T16:30:49.784Z,54.33
2019-02-21T16:37:02.477Z,54.32
2019-02-21T16:43:08.029Z,54.64
2019-02-21T16:49:13.910Z,54.59
2019-02-21T16:55:20.371Z,54.68
2019-02-21T17:01:26.169Z,54.42
2019-02-21T17:07:32.006Z,55.05
2019-02-21T17:13:38.845Z,55.51
2019-02-21T17:19:45.188Z,55.58
2019-02-21T17:25:51.079Z,55.41
2019-02-21T17:31:56.910Z,55.37
2019-02-21T17:38:02.789Z,55.13
2019-02-21T17:44:08.795Z,55.00
2019-02-21T17:50:15.504Z,55.00
2019-02-21T17:56:43.158Z,56.17
2019-02-21T18:02:46.618Z,56.78
2019-02-21T18:08:55.038Z,57.46
2019-02-21T18:15:00.743Z,58.28
2019-02-21T18:21:08.292Z,60.44
2019-02-21T18:27:14.640Z,62.88
2019-02-21T18:33:20.900Z,63.75
2019-02-21T18:39:26.989Z,63.93
2019-02-21T18:45:32.958Z,63.67
2019-02-21T18:51:38.971Z,63.57
2019-02-21T18:57:46.884Z,63.61
2019-02-21T19:03:52.943Z,63.69
2019-02-21T19:09:59.149Z,63.73
2019-02-21T19:16:05.367Z,63.89
2019-02-21T19:22:11.601Z,64.00
2019-02-21T19:28:36.489Z,63.58
2019-02-21T19:34:43.133Z,63.48
2019-02-21T19:40:48.990Z,63.93
2019-02-21T19:46:55.283Z,64.16
2019-02-21T19:53:01.346Z,64.08
2019-02-21T19:59:08.280Z,64.23
2019-02-21T20:05:14.154Z,64.20
2019-02-21T20:11:19.966Z,63.92
2019-02-21T20:17:26.323Z,63.92
2019-02-21T20:23:32.176Z,64.20
2019-02-21T20:29:38.146Z,65.00
2019-02-21T20:35:44.339Z,65.75
2019-02-21T20:41:50.213Z,67.27
2019-02-21T20:47:56.583Z,68.07
2019-02-21T20:54:02.536Z,68.88
2019-02-21T21:00:11.054Z,69.31
2019-02-21T21:06:16.976Z,69.32
2019-02-21T21:12:23.181Z,70.35
2019-02-21T21:18:29.659Z,70.82
2019-02-21T21:24:35.734Z,71.32
2019-02-21T21:30:42.017Z,71.82
2019-02-21T21:36:47.922Z,71.90
2019-02-21T21:42:54.045Z,71.91
2019-02-21T21:49:00.031Z,72.04
2019-02-21T21:55:06.534Z,72.10
2019-02-21T22:01:12.535Z,71.93
2019-02-21T22:07:18.484Z,71.78
2019-02-21T22:13:24.667Z,71.86
2019-02-21T22:19:30.928Z,71.96
2019-02-21T22:25:37.453Z,72.04
2019-02-21T22:31:43.549Z,72.33
2019-02-21T22:37:49.391Z,72.57
2019-02-21T22:43:55.280Z,72.70
2019-02-21T22:50:01.566Z,72.91
2019-02-21T22:56:07.655Z,73.00
2019-02-21T23:02:13.965Z,72.74
2019-02-21T23:08:54.008Z,72.52
2019-02-21T23:14:59.777Z,72.37
2019-02-21T23:21:05.712Z,72.31
2019-02-21T23:27:11.524Z,72.49
2019-02-21T23:33:17.701Z,72.60
2019-02-21T23:39:23.499Z,72.64
2019-02-21T23:45:29.415Z,72.71
2019-02-21T23:51:35.330Z,73.05
2019-02-21T23:57:41.324Z,73.10
